Time;durP1;ratioP1;P1;durP2;ratioP2;P2;SDS_P1;SDS_P2;PMS_P1;PMS_P2;Temp;Humidity;BMP_temperature;BMP_pressure;BME280_temperature;BME280_humidity;BME280_pressure;Samples;Min_cycle;Max_cycle;Signal;HPM_P1;HPM_P2
2022/08/17 00:01:50;;;;;;;;;;;;;;;;;;6064084;23;7235;-81
2022/08/17 00:04:19;;;;;;;;;;;;;;;;;;6064691;23;8380;-79
2022/08/17 00:06:45;;;;;;;;;;;;;;;;;;6064208;23;8778;-79
2022/08/17 00:09:10;;;;;;;;;;;;;;;;;;6064167;23;7134;-81
2022/08/17 00:11:39;;;;;;;;;;;;;;;;;;6064358;23;8359;-80
2022/08/17 00:14:09;;;;;;;;;;;;;;;;;;6064373;23;8892;-79
2022/08/17 00:16:37;;;;;;;;;;;;;;;;;;6064633;23;8416;-79
2022/08/17 00:19:06;;;;;;;;;;;;;;;;;;6066065;23;7230;-77
2022/08/17 00:21:33;;;;;;;;;;;;;;;;;;6066061;23;8808;-80
2022/08/17 00:23:58;;;;;;;;;;;;;;;;;;6065930;23;8438;-80
2022/08/17 00:26:26;;;;;;;;;;;;;;;;;;6066199;23;7005;-82
2022/08/17 00:28:52;;;;;;;;;;;;;;;;;;6066025;23;7093;-81
2022/08/17 00:31:19;;;;;;;;;;;;;;;;;;6065878;23;8596;-81
2022/08/17 00:33:44;;;;;;;;;;;;;;;;;;6065881;23;8683;-82
2022/08/17 00:36:10;;;;;;;;;;;;;;;;;;6066049;23;8795;-82
2022/08/17 00:38:36;;;;;;;;;;;;;;;;;;6065809;23;7340;-78
2022/08/17 00:41:04;;;;;;;;;;;;;;;;;;6065938;23;7084;-81
2022/08/17 00:43:32;;;;;;;;;;;;;;;;;;6065803;23;7176;-79
2022/08/17 00:46:00;;;;;;;;;;;;;;;;;;6065933;23;8804;-79
2022/08/17 00:48:26;;;;;;;;;;;;;;;;;;6065788;23;8505;-79
2022/08/17 00:51:15;;;;;;;;;;;;;;;;;;6065839;23;8594;-78
2022/08/17 00:53:46;;;;;;;;;;;;;;;;;;6050170;23;8416;-80
2022/08/17 00:56:17;;;;;;;;;;;;;;;;;;6065844;23;8921;-80
2022/08/17 00:58:43;;;;;;;;;;;;;;;;;;6065680;23;8684;-79
2022/08/17 01:01:11;;;;;;;;;;;;;;;;;;6065826;23;8522;-78
2022/08/17 01:03:38;;;;;;;;;;;;;;;;;;6065331;23;8420;-79
2022/08/17 01:06:06;;;;;;;;;;;;;;;;;;6065848;23;8495;-79
2022/08/17 01:08:32;;;;;;;;;;;;;;;;;;6066017;23;8330;-78
2022/08/17 01:11:04;;;;;;;;;;;;;;;;;;6013510;23;7256;-79
2022/08/17 01:13:32;;;;;;;;;;;;;;;;;;5989993;23;7168;-80
2022/08/17 01:16:02;;;;;;;;;;;;;;;;;;5990204;23;8411;-82
2022/08/17 01:18:28;;;;;;;;;;;;;;;;;;5990708;23;7400;-81
2022/08/17 01:20:57;;;;;;;;;;;;;;;;;;5990444;23;6980;-80
2022/08/17 01:23:25;;;;;;;;;;;;;;;;;;5989807;23;8434;-79
2022/08/17 01:25:56;;;;;;;;;;;;;;;;;;5990344;23;7163;-79
2022/08/17 01:28:24;;;;;;;;;;;;;;;;;;5990257;23;7200;-80
2022/08/17 01:30:53;;;;;;;;;;;;;;;;;;5989776;23;8703;-80
2022/08/17 01:33:19;;;;;;;;;;;;;;;;;;5990113;23;6999;-79
2022/08/17 01:35:45;;;;;;;;;;;;;;;;;;5990113;23;8442;-78
2022/08/17 01:38:11;;;;;;;;;;;;;;;;;;5990176;23;8744;-80
2022/08/17 01:40:38;;;;;;;;;;;;;;;;;;5989853;23;7303;-80
2022/08/17 01:43:09;;;;;;;;;;;;;;;;;;5990457;23;7086;-80
2022/08/17 01:45:48;;;;;;;;;;;;;;;;;;5990641;23;6988;-79
2022/08/17 01:48:13;;;;;;;;;;;;;;;;;;5990118;23;8496;-79
2022/08/17 01:50:51;;;;;;;;;;;;;;;;;;5990466;23;8372;-80
2022/08/17 01:53:23;;;;;;;;;;;;;;;;;;5990512;23;7419;-80
2022/08/17 01:55:55;;;;;;;;;;;;;;;;;;5989993;23;7158;-78
2022/08/17 01:58:21;;;;;;;;;;;;;;;;;;5989870;23;7036;-81
2022/08/17 02:00:50;;;;;;;;;;;;;;;;;;5989521;23;6996;-79
2022/08/17 02:03:17;;;;;;;;;;;;;;;;;;5990007;23;7786;-81
2022/08/17 02:05:42;;;;;;;;;;;;;;;;;;5989959;23;6997;-78
2022/08/17 02:08:07;;;;;;;;;;;;;;;;;;5990036;23;8593;-78
2022/08/17 02:10:33;;;;;;;;;;;;;;;;;;6034215;23;7095;-79
2022/08/17 02:13:00;;;;;;;;;;;;;;;;;;6041560;23;7226;-81
2022/08/17 02:15:26;;;;;;;;;;;;;;;;;;6042409;23;7174;-81
2022/08/17 02:17:52;;;;;;;;;;;;;;;;;;6065855;23;7018;-80
2022/08/17 02:20:18;;;;;;;;;;;;;;;;;;6041898;23;8427;-79
2022/08/17 02:22:46;;;;;;;;;;;;;;;;;;6041084;23;6986;-79
2022/08/17 02:25:15;;;;;;;;;;;;;;;;;;6041421;23;8407;-79
2022/08/17 02:27:40;;;;;;;;;;;;;;;;;;6041753;23;7195;-79
2022/08/17 02:30:08;;;;;;;;;;;;;;;;;;6041572;23;8469;-79
2022/08/17 02:32:34;;;;;;;;;;;;;;;;;;6041421;23;7061;-78
2022/08/17 02:35:00;;;;;;;;;;;;;;;;;;6041717;23;8365;-79
2022/08/17 02:37:27;;;;;;;;;;;;;;;;;;6041893;23;7026;-80
2022/08/17 02:39:55;;;;;;;;;;;;;;;;;;6042314;23;7230;-80
2022/08/17 02:42:26;;;;;;;;;;;;;;;;;;6041041;23;9291;-80
2022/08/17 02:44:52;;;;;;;;;;;;;;;;;;6042364;23;7237;-80
2022/08/17 02:47:17;;;;;;;;;;;;;;;;;;6041001;23;8559;-80
2022/08/17 02:49:43;;;;;;;;;;;;;;;;;;6043250;23;7215;-80
2022/08/17 02:52:08;;;;;;;;;;;;;;;;;;6041596;23;8391;-81
2022/08/17 02:54:35;;;;;;;;;;;;;;;;;;6041407;23;7068;-80
2022/08/17 02:57:02;;;;;;;;;;;;;;;;;;6040441;23;7255;-79
2022/08/17 02:59:28;;;;;;;;;;;;;;;;;;6041310;23;7393;-80
2022/08/17 03:01:54;;;;;;;;;;;;;;;;;;6041223;23;6939;-78
2022/08/17 03:04:20;;;;;;;;;;;;;;;;;;6041186;23;7241;-80
2022/08/17 03:06:46;;;;;;;;;;;;;;;;;;6041359;23;7020;-80
2022/08/17 03:09:12;;;;;;;;;;;;;;;;;;6040324;23;8668;-81
2022/08/17 03:11:38;;;;;;;;;;;;;;;;;;6041366;23;7143;-81
2022/08/17 03:14:03;;;;;;;;;;;;;;;;;;6040706;23;6844;-81
2022/08/17 03:16:29;;;;;;;;;;;;;;;;;;6041307;23;6952;-82
2022/08/17 03:18:54;;;;;;;;;;;;;;;;;;6040373;23;8735;-79
2022/08/17 03:21:20;;;;;;;;;;;;;;;;;;6040794;23;8623;-81
2022/08/17 03:23:45;;;;;;;;;;;;;;;;;;6040718;23;8553;-80
2022/08/17 03:26:10;;;;;;;;;;;;;;;;;;6040761;23;7124;-79
2022/08/17 03:28:37;;;;;;;;;;;;;;;;;;6041149;23;6823;-80
2022/08/17 03:31:03;;;;;;;;;;;;;;;;;;6040263;23;7049;-80
2022/08/17 03:33:30;;;;;;;;;;;;;;;;;;6040715;23;8365;-81
2022/08/17 03:35:55;;;;;;;;;;;;;;;;;;6040335;23;8368;-81
2022/08/17 03:38:21;;;;;;;;;;;;;;;;;;6040516;23;8453;-81
2022/08/17 03:40:48;;;;;;;;;;;;;;;;;;6040371;23;8406;-79
2022/08/17 03:43:14;;;;;;;;;;;;;;;;;;6040269;23;8391;-78
2022/08/17 03:56:46;;;;;;;;;;;;;;;;;;6041590;23;6792;-79
2022/08/17 03:59:20;;;;;;;;;;;;;;;;;;6039777;23;8476;-80
2022/08/17 04:01:48;;;;;;;;;;;;;;;;;;6041212;23;8414;-80
2022/08/17 04:04:15;;;;;;;;;;;;;;;;;;6040124;23;8492;-81
2022/08/17 04:06:41;;;;;;;;;;;;;;;;;;6040313;23;8338;-81
2022/08/17 04:09:07;;;;;;;;;;;;;;;;;;6040160;23;8381;-80
2022/08/17 04:11:34;;;;;;;;;;;;;;;;;;6040358;23;7027;-80
2022/08/17 04:14:00;;;;;;;;;;;;;;;;;;6040410;23;8633;-80
2022/08/17 04:16:25;;;;;;;;;;;;;;;;;;6040267;23;8382;-81
2022/08/17 04:18:51;;;;;;;;;;;;;;;;;;6040398;23;8884;-81
2022/08/17 04:21:17;;;;;;;;;;;;;;;;;;6040231;23;8981;-81
2022/08/17 04:23:43;;;;;;;;;;;;;;;;;;6039929;23;8397;-81
2022/08/17 04:26:09;;;;;;;;;;;;;;;;;;6040307;23;7176;-81
2022/08/17 04:28:34;;;;;;;;;;;;;;;;;;6040223;23;8696;-81
2022/08/17 04:31:00;;;;;;;;;;;;;;;;;;6040702;23;8406;-80
2022/08/17 04:33:27;;;;;;;;;;;;;;;;;;6040200;23;8479;-79
2022/08/17 04:35:55;;;;;;;;;;;;;;;;;;6040692;23;8474;-78
2022/08/17 04:38:27;;;;;;;;;;;;;;;;;;6034183;23;8920;-79
2022/08/17 04:43:39;;;;;;;;;;;;;;;;;;6038646;23;6931;-79
2022/08/17 04:46:07;;;;;;;;;;;;;;;;;;6038593;23;7052;-79
2022/08/17 04:48:35;;;;;;;;;;;;;;;;;;6039104;23;8372;-78
2022/08/17 04:51:00;;;;;;;;;;;;;;;;;;6038167;23;8477;-80
2022/08/17 04:53:26;;;;;;;;;;;;;;;;;;6037472;23;7171;-79
2022/08/17 04:55:54;;;;;;;;;;;;;;;;;;6037748;23;8376;-75
2022/08/17 04:58:20;;;;;;;;;;;;;;;;;;6038853;23;7140;-75
2022/08/17 05:00:45;;;;;;;;;;;;;;;;;;6038863;23;8373;-84
2022/08/17 05:03:11;;;;;;;;;;;;;;;;;;6040024;23;8298;-79
2022/08/17 05:05:39;;;;;;;;;;;;;;;;;;6042991;23;9507;-79
2022/08/17 05:08:05;;;;;;;;;;;;;;;;;;6040500;23;7227;-76
2022/08/17 05:10:34;;;;;;;;;;;;;;;;;;6036847;23;8430;-82
2022/08/17 05:13:05;;;;;;;;;;;;;;;;;;6040708;23;8480;-79
2022/08/17 05:15:32;;;;;;;;;;;;;;;;;;6041047;23;7063;-80
2022/08/17 05:17:59;;;;;;;;;;;;;;;;;;6040343;23;8597;-78
2022/08/17 05:20:24;;;;;;;;;;;;;;;;;;6040686;23;7033;-78
2022/08/17 05:22:51;;;;;;;;;;;;;;;;;;6040380;23;8294;-78
2022/08/17 05:25:18;;;;;;;;;;;;;;;;;;6040400;23;7144;-79
2022/08/17 05:27:43;;;;;;;;;;;;;;;;;;6040736;23;8612;-81
2022/08/17 05:30:09;;;;;;;;;;;;;;;;;;6040701;23;8803;-82
2022/08/17 05:32:35;;;;;;;;;;;;;;;;;;6040501;23;8468;-80
2022/08/17 05:35:01;;;;;;;;;;;;;;;;;;6040629;23;8278;-81
2022/08/17 05:37:26;;;;;;;;;;;;;;;;;;6040804;23;7171;-79
2022/08/17 05:39:52;;;;;;;;;;;;;;;;;;6040044;23;8807;-80
2022/08/17 05:42:19;;;;;;;;;;;;;;;;;;6040634;23;8284;-77
2022/08/17 05:44:44;;;;;;;;;;;;;;;;;;6040702;23;8414;-78
2022/08/17 05:47:10;;;;;;;;;;;;;;;;;;6039930;23;8369;-78
2022/08/17 05:49:35;;;;;;;;;;;;;;;;;;6040516;23;8374;-76
2022/08/17 05:52:25;;;;;;;;;;;;;;;;;;6041055;23;8483;-78
2022/08/17 05:55:03;;;;;;;;;;;;;;;;;;6040245;23;8289;-78
2022/08/17 05:59:57;;;;;;;;;;;;;;;;;;6041859;23;8792;-78
2022/08/17 06:02:25;;;;;;;;;;;;;;;;;;6039976;23;8760;-78
2022/08/17 06:04:53;;;;;;;;;;;;;;;;;;6040371;23;8560;-78
2022/08/17 06:07:25;;;;;;;;;;;;;;;;;;6040631;23;7101;-79
2022/08/17 06:10:03;;;;;;;;;;;;;;;;;;6039672;23;7346;-81
2022/08/17 06:12:29;;;;;;;;;;;;;;;;;;6040576;23;8727;-79
2022/08/17 06:15:06;;;;;;;;;;;;;;;;;;6040332;23;8374;-78
2022/08/17 06:17:33;;;;;;;;;;;;;;;;;;6040055;23;7351;-79
2022/08/17 06:20:03;;;;;;;;;;;;;;;;;;6040091;23;8417;-78
2022/08/17 06:22:44;;;;;;;;;;;;;;;;;;6039645;23;8476;-79
2022/08/17 06:25:16;;;;;;;;;;;;;;;;;;6016202;23;8412;-79
2022/08/17 06:27:54;;;;;;;;;;;;;;;;;;6039938;23;8285;-79
2022/08/17 06:30:24;;;;;;;;;;;;;;;;;;6039820;23;7229;-79
2022/08/17 06:32:52;;;;;;;;;;;;;;;;;;6040214;23;8780;-79
2022/08/17 06:35:31;;;;;;;;;;;;;;;;;;6040417;23;9194;-80
2022/08/17 06:37:58;;;;;;;;;;;;;;;;;;6039588;23;8403;-78
2022/08/17 06:40:44;;;;;;;;;;;;;;;;;;6038470;23;8451;-80
2022/08/17 06:43:11;;;;;;;;;;;;;;;;;;6038931;23;7047;-82
2022/08/17 06:45:41;;;;;;;;;;;;;;;;;;6038232;23;8441;-80
2022/08/17 06:48:29;;;;;;;;;;;;;;;;;;6038949;23;8404;-80
2022/08/17 06:51:14;;;;;;;;;;;;;;;;;;6037773;23;9107;-79
2022/08/17 06:53:39;;;;;;;;;;;;;;;;;;6039175;23;8395;-79
2022/08/17 06:56:09;;;;;;;;;;;;;;;;;;6040315;23;8517;-79
2022/08/17 06:58:37;;;;;;;;;;;;;;;;;;6040094;23;8930;-78
2022/08/17 07:01:23;;;;;;;;;;;;;;;;;;6039573;23;7163;-79
2022/08/17 07:03:54;;;;;;;;;;;;;;;;;;6039320;23;8675;-81
2022/08/17 07:06:23;;;;;;;;;;;;;;;;;;6040165;23;8449;-81
2022/08/17 07:09:00;;;;;;;;;;;;;;;;;;6035449;23;8698;-78
2022/08/17 07:11:35;;;;;;;;;;;;;;;;;;5988194;23;7329;-81
2022/08/17 07:14:03;;;;;;;;;;;;;;;;;;5988173;23;9683;-78
2022/08/17 07:16:38;;;;;;;;;;;;;;;;;;5987554;23;8914;-79
2022/08/17 07:19:06;;;;;;;;;;;;;;;;;;5988331;23;8382;-78
2022/08/17 07:21:32;;;;;;;;;;;;;;;;;;5988028;23;8719;-79
2022/08/17 07:24:06;;;;;;;;;;;;;;;;;;5987599;23;8717;-79
2022/08/17 07:26:32;;;;;;;;;;;;;;;;;;5987577;23;9351;-79
2022/08/17 07:28:59;;;;;;;;;;;;;;;;;;5987629;23;8517;-78
2022/08/17 07:31:29;;;;;;;;;;;;;;;;;;5987245;23;8416;-80
2022/08/17 07:34:07;;;;;;;;;;;;;;;;;;5987830;23;8668;-82
2022/08/17 07:36:33;;;;;;;;;;;;;;;;;;5987984;23;9238;-79
2022/08/17 07:39:00;;;;;;;;;;;;;;;;;;5987351;23;6989;-78
2022/08/17 07:41:28;;;;;;;;;;;;;;;;;;5987618;23;8421;-79
2022/08/17 07:43:55;;;;;;;;;;;;;;;;;;5987559;23;8480;-81
2022/08/17 07:49:34;;;;;;;;;;;;;;;;;;6012343;23;7082;-79
2022/08/17 07:52:02;;;;;;;;;;;;;;;;;;5987070;23;8463;-80
2022/08/17 07:54:39;;;;;;;;;;;;;;;;;;5987561;23;8392;-80
2022/08/17 07:57:11;;;;;;;;;;;;;;;;;;5987820;23;8459;-81
2022/08/17 07:59:42;;;;;;;;;;;;;;;;;;5986808;23;8354;-79
2022/08/17 08:02:11;;;;;;;;;;;;;;;;;;5987831;23;7207;-80
2022/08/17 08:04:42;;;;;;;;;;;;;;;;;;5987509;23;8871;-81
2022/08/17 08:07:19;;;;;;;;;;;;;;;;;;5987184;23;8821;-80
2022/08/17 08:09:58;;;;;;;;;;;;;;;;;;6014165;23;7162;-80
2022/08/17 08:12:28;;;;;;;;;;;;;;;;;;6040399;23;8427;-81
2022/08/17 08:15:20;;;;;;;;;;;;;;;;;;6040356;23;8488;-79
2022/08/17 08:17:46;;;;;;;;;;;;;;;;;;6035382;23;8460;-79
2022/08/17 08:20:12;;;;;;;;;;;;;;;;;;6039282;23;7170;-80
2022/08/17 08:22:38;;;;;;;;;;;;;;;;;;6039209;23;8268;-80
2022/08/17 08:25:10;;;;;;;;;;;;;;;;;;6039197;23;8523;-80
2022/08/17 08:27:41;;;;;;;;;;;;;;;;;;6039556;23;8351;-81
2022/08/17 08:30:10;;;;;;;;;;;;;;;;;;6038743;23;8839;-80
2022/08/17 08:32:47;;;;;;;;;;;;;;;;;;6039179;23;8344;-81
2022/08/17 08:35:13;;;;;;;;;;;;;;;;;;6039283;23;8955;-78
2022/08/17 08:37:41;;;;;;;;;;;;;;;;;;6038727;23;8667;-78
2022/08/17 08:40:32;;;;;;;;;;;;;;;;;;6039396;23;8454;-81
2022/08/17 08:43:07;;;;;;;;;;;;;;;;;;6041313;23;7186;-79
2022/08/17 08:45:45;;;;;;;;;;;;;;;;;;6039199;23;8985;-80
2022/08/17 08:48:16;;;;;;;;;;;;;;;;;;6040435;23;8607;-80
2022/08/17 08:50:59;;;;;;;;;;;;;;;;;;6039836;23;8921;-80
2022/08/17 08:53:54;;;;;;;;;;;;;;;;;;6041234;23;7237;-81
2022/08/17 08:56:20;;;;;;;;;;;;;;;;;;5966470;23;8455;-80
2022/08/17 08:59:02;;;;;;;;;;;;;;;;;;6040302;23;8330;-80
2022/08/17 09:01:38;;;;;;;;;;;;;;;;;;6040608;23;8458;-81
2022/08/17 09:04:17;;;;;;;;;;;;;;;;;;6040581;23;7068;-80
2022/08/17 09:06:57;;;;;;;;;;;;;;;;;;6040470;23;8486;-80
2022/08/17 09:09:39;;;;;;;;;;;;;;;;;;6040413;23;8463;-79
2022/08/17 09:12:05;;;;;;;;;;;;;;;;;;6040722;23;8343;-81
2022/08/17 09:14:30;;;;;;;;;;;;;;;;;;6040284;23;8727;-80
2022/08/17 09:16:56;;;;;;;;;;;;;;;;;;6040532;23;8854;-81
2022/08/17 09:19:29;;;;;;;;;;;;;;;;;;6040878;23;8406;-80
2022/08/17 09:22:21;;;;;;;;;;;;;;;;;;6040111;23;8479;-80
2022/08/17 09:24:53;;;;;;;;;;;;;;;;;;6040877;23;8456;-80
2022/08/17 09:27:22;;;;;;;;;;;;;;;;;;6040539;23;8852;-79
2022/08/17 09:29:55;;;;;;;;;;;;;;;;;;6040005;23;8356;-80
2022/08/17 09:32:30;;;;;;;;;;;;;;;;;;6040841;23;8498;-81
2022/08/17 09:35:00;;;;;;;;;;;;;;;;;;6040682;23;8545;-79
2022/08/17 09:37:33;;;;;;;;;;;;;;;;;;6040763;23;8862;-80
2022/08/17 09:40:16;;;;;;;;;;;;;;;;;;6040334;23;8828;-80
2022/08/17 09:42:50;;;;;;;;;;;;;;;;;;6040563;23;8466;-81
2022/08/17 09:45:16;;;;;;;;;;;;;;;;;;6040291;23;8417;-78
2022/08/17 09:47:45;;;;;;;;;;;;;;;;;;6040445;23;8842;-79
2022/08/17 09:50:11;;;;;;;;;;;;;;;;;;6039717;23;7118;-81
2022/08/17 09:52:37;;;;;;;;;;;;;;;;;;6040335;23;9392;-79
2022/08/17 09:55:04;;;;;;;;;;;;;;;;;;6040620;23;8851;-79
2022/08/17 09:57:47;;;;;;;;;;;;;;;;;;6039605;23;8455;-79
2022/08/17 10:00:26;;;;;;;;;;;;;;;;;;6040276;23;8956;-80
2022/08/17 10:03:04;;;;;;;;;;;;;;;;;;6040514;23;8750;-80
2022/08/17 10:05:45;;;;;;;;;;;;;;;;;;6039634;23;9284;-80
2022/08/17 10:08:26;;;;;;;;;;;;;;;;;;6040331;23;7791;-79
2022/08/17 10:11:04;;;;;;;;;;;;;;;;;;6039718;23;8940;-79
2022/08/17 10:13:33;;;;;;;;;;;;;;;;;;6039840;23;8500;-79
2022/08/17 10:16:12;;;;;;;;;;;;;;;;;;6040207;23;9642;-79
2022/08/17 10:18:44;;;;;;;;;;;;;;;;;;6040260;23;8702;-81
2022/08/17 10:27:02;;;;;;;;;;;;;;;;;;6041144;23;6842;-79
2022/08/17 10:29:37;;;;;;;;;;;;;;;;;;6039951;23;8859;-80
2022/08/17 10:32:08;;;;;;;;;;;;;;;;;;6040204;23;8367;-79
2022/08/17 10:34:46;;;;;;;;;;;;;;;;;;6063679;23;8584;-80
2022/08/17 10:37:18;;;;;;;;;;;;;;;;;;6040282;23;8476;-81
2022/08/17 10:40:02;;;;;;;;;;;;;;;;;;6039752;23;8888;-81
2022/08/17 10:42:43;;;;;;;;;;;;;;;;;;6039442;23;8859;-80
2022/08/17 10:45:17;;;;;;;;;;;;;;;;;;6039816;23;8979;-81
2022/08/17 10:47:58;;;;;;;;;;;;;;;;;;6040159;23;8544;-80
2022/08/17 10:50:42;;;;;;;;;;;;;;;;;;6039118;23;8661;-80
2022/08/17 10:53:08;;;;;;;;;;;;;;;;;;6039901;23;8471;-81
2022/08/17 10:55:34;;;;;;;;;;;;;;;;;;6039905;23;8822;-79
2022/08/17 10:58:20;;;;;;;;;;;;;;;;;;6039710;23;8482;-79
2022/08/17 11:00:52;;;;;;;;;;;;;;;;;;6039549;23;8396;-79
2022/08/17 11:03:21;;;;;;;;;;;;;;;;;;6039487;23;8503;-79
2022/08/17 11:05:49;;;;;;;;;;;;;;;;;;6039672;23;8902;-78
2022/08/17 11:08:47;;;;;;;;;;;;;;;;;;6039619;23;8975;-79
2022/08/17 11:11:13;;;;;;;;;;;;;;;;;;6039367;23;8717;-77
2022/08/17 11:13:48;;;;;;;;;;;;;;;;;;6039457;23;9254;-79
2022/08/17 11:16:20;;;;;;;;;;;;;;;;;;6039868;23;8544;-79
2022/08/17 11:18:57;;;;;;;;;;;;;;;;;;6039288;23;9230;-79
2022/08/17 11:21:38;;;;;;;;;;;;;;;;;;6039902;23;8553;-79
2022/08/17 11:24:10;;;;;;;;;;;;;;;;;;6039726;23;8489;-80
2022/08/17 11:26:45;;;;;;;;;;;;;;;;;;6039088;23;8891;-80
2022/08/17 11:29:22;;;;;;;;;;;;;;;;;;6040043;23;8483;-81
2022/08/17 11:32:05;;;;;;;;;;;;;;;;;;6039401;23;8497;-81
2022/08/17 11:34:32;;;;;;;;;;;;;;;;;;6039024;23;8559;-79
2022/08/17 11:37:07;;;;;;;;;;;;;;;;;;6039476;23;8684;-81
2022/08/17 11:39:42;;;;;;;;;;;;;;;;;;6039220;23;8790;-78
2022/08/17 11:42:07;;;;;;;;;;;;;;;;;;6015501;23;8658;-77
2022/08/17 11:44:36;;;;;;;;;;;;;;;;;;6039895;23;8401;-79
2022/08/17 11:52:55;;;;;;;;;;;;;;;;;;6040960;23;7152;-79
2022/08/17 11:55:26;;;;;;;;;;;;;;;;;;6039426;23;7005;-79
2022/08/17 11:57:59;;;;;;;;;;;;;;;;;;6038915;23;9017;-79
2022/08/17 12:00:43;;;;;;;;;;;;;;;;;;6039480;23;8481;-79
2022/08/17 12:03:43;;;;;;;;;;;;;;;;;;6038979;23;8462;-79
2022/08/17 12:06:41;;;;;;;;;;;;;;;;;;6038693;23;8513;-79
2022/08/17 12:09:13;;;;;;;;;;;;;;;;;;5987892;23;8640;-78
2022/08/17 12:11:40;;;;;;;;;;;;;;;;;;5986957;23;8563;-78
2022/08/17 12:14:08;;;;;;;;;;;;;;;;;;5990354;23;8385;-78
2022/08/17 12:16:33;;;;;;;;;;;;;;;;;;5990363;23;8829;-79
2022/08/17 12:19:01;;;;;;;;;;;;;;;;;;5990032;23;6883;-79
2022/08/17 12:21:47;;;;;;;;;;;;;;;;;;5990211;23;7243;-78
2022/08/17 12:24:16;;;;;;;;;;;;;;;;;;5990394;23;9379;-79
2022/08/17 12:26:44;;;;;;;;;;;;;;;;;;5990362;23;8682;-79
2022/08/17 12:29:16;;;;;;;;;;;;;;;;;;5990532;23;9030;-79
2022/08/17 12:31:44;;;;;;;;;;;;;;;;;;5990258;23;8570;-79
2022/08/17 12:34:18;;;;;;;;;;;;;;;;;;5990393;23;8641;-79
2022/08/17 12:36:45;;;;;;;;;;;;;;;;;;5991077;23;8673;-78
2022/08/17 12:39:17;;;;;;;;;;;;;;;;;;5990484;23;8486;-79
2022/08/17 12:41:46;;;;;;;;;;;;;;;;;;5989927;23;7165;-76
2022/08/17 12:44:17;;;;;;;;;;;;;;;;;;5990345;23;7117;-78
2022/08/17 12:47:06;;;;;;;;;;;;;;;;;;5991451;23;8564;-78
2022/08/17 12:49:31;;;;;;;;;;;;;;;;;;5990678;23;8766;-78
2022/08/17 12:52:11;;;;;;;;;;;;;;;;;;5990405;23;8476;-79
2022/08/17 12:54:45;;;;;;;;;;;;;;;;;;5992330;23;8819;-79
2022/08/17 12:57:14;;;;;;;;;;;;;;;;;;5990098;23;8485;-79
2022/08/17 12:59:50;;;;;;;;;;;;;;;;;;5990131;23;8661;-78
2022/08/17 13:02:21;;;;;;;;;;;;;;;;;;5992978;23;8717;-79
2022/08/17 13:04:46;;;;;;;;;;;;;;;;;;5992316;23;7226;-80
2022/08/17 13:07:24;;;;;;;;;;;;;;;;;;5990324;23;8463;-82
2022/08/17 13:09:50;;;;;;;;;;;;;;;;;;6012669;23;7180;-81
2022/08/17 13:12:24;;;;;;;;;;;;;;;;;;6042981;23;7106;-79
2022/08/17 13:14:50;;;;;;;;;;;;;;;;;;6042681;23;8495;-81
2022/08/17 13:17:24;;;;;;;;;;;;;;;;;;6041797;23;8944;-80
2022/08/17 13:19:50;;;;;;;;;;;;;;;;;;6041798;23;7181;-80
2022/08/17 13:22:17;;;;;;;;;;;;;;;;;;6042656;23;8549;-79
2022/08/17 13:24:53;;;;;;;;;;;;;;;;;;6041184;23;9491;-77
2022/08/17 13:27:21;;;;;;;;;;;;;;;;;;6041241;23;8843;-76
2022/08/17 13:29:52;;;;;;;;;;;;;;;;;;6042615;23;8454;-79
2022/08/17 13:32:21;;;;;;;;;;;;;;;;;;6040131;23;9447;-79
2022/08/17 13:34:52;;;;;;;;;;;;;;;;;;6040316;23;8722;-80
2022/08/17 13:37:33;;;;;;;;;;;;;;;;;;6040521;23;8946;-81
2022/08/17 13:40:18;;;;;;;;;;;;;;;;;;6040555;23;8589;-79
2022/08/17 13:42:46;;;;;;;;;;;;;;;;;;6040492;23;8456;-80
2022/08/17 13:45:27;;;;;;;;;;;;;;;;;;6041182;23;8949;-81
2022/08/17 13:48:08;;;;;;;;;;;;;;;;;;6039394;23;7059;-81
2022/08/17 13:50:39;;;;;;;;;;;;;;;;;;6039888;23;8460;-78
2022/08/17 13:53:17;;;;;;;;;;;;;;;;;;6041173;23;7021;-81
2022/08/17 13:55:48;;;;;;;;;;;;;;;;;;6038913;23;8725;-79
2022/08/17 13:58:18;;;;;;;;;;;;;;;;;;6040740;23;8539;-79
2022/08/17 14:00:44;;;;;;;;;;;;;;;;;;6040746;23;8452;-81
2022/08/17 14:03:09;;;;;;;;;;;;;;;;;;6040265;23;8466;-80
2022/08/17 14:05:37;;;;;;;;;;;;;;;;;;6040699;23;8516;-80
2022/08/17 14:08:03;;;;;;;;;;;;;;;;;;6040733;23;8445;-82
2022/08/17 14:10:29;;;;;;;;;;;;;;;;;;6039198;23;7038;-80
2022/08/17 14:12:55;;;;;;;;;;;;;;;;;;6040525;23;8430;-83
2022/08/17 14:15:23;;;;;;;;;;;;;;;;;;6040543;23;8676;-82
2022/08/17 14:17:48;;;;;;;;;;;;;;;;;;6039843;23;7031;-77
2022/08/17 14:20:15;;;;;;;;;;;;;;;;;;6040364;23;7152;-77
2022/08/17 14:22:47;;;;;;;;;;;;;;;;;;6039859;23;8531;-79
2022/08/17 14:25:14;;;;;;;;;;;;;;;;;;6040065;23;8721;-80
2022/08/17 14:27:40;;;;;;;;;;;;;;;;;;6040356;23;8387;-79
2022/08/17 14:30:06;;;;;;;;;;;;;;;;;;6039475;23;8406;-78
2022/08/17 14:32:34;;;;;;;;;;;;;;;;;;6039863;23;8406;-79
2022/08/17 14:35:01;;;;;;;;;;;;;;;;;;6040190;23;7449;-79
2022/08/17 14:37:28;;;;;;;;;;;;;;;;;;6039994;23;8654;-79
2022/08/17 14:39:55;;;;;;;;;;;;;;;;;;6039541;23;8764;-80
2022/08/17 14:42:24;;;;;;;;;;;;;;;;;;6039743;23;9204;-79
2022/08/17 14:44:51;;;;;;;;;;;;;;;;;;6040294;23;8410;-81
2022/08/17 14:47:16;;;;;;;;;;;;;;;;;;6040035;23;7181;-80
2022/08/17 14:49:42;;;;;;;;;;;;;;;;;;6039862;23;8372;-80
2022/08/17 14:52:11;;;;;;;;;;;;;;;;;;6040432;23;8822;-82
2022/08/17 14:54:37;;;;;;;;;;;;;;;;;;6040144;23;8480;-81
2022/08/17 14:57:03;;;;;;;;;;;;;;;;;;6040599;23;8369;-81
2022/08/17 14:59:30;;;;;;;;;;;;;;;;;;6039821;23;8571;-82
2022/08/17 15:01:56;;;;;;;;;;;;;;;;;;6039687;23;7062;-79
2022/08/17 15:04:23;;;;;;;;;;;;;;;;;;6039875;23;8305;-79
2022/08/17 15:06:49;;;;;;;;;;;;;;;;;;6039716;23;9164;-80
2022/08/17 15:09:15;;;;;;;;;;;;;;;;;;6039416;23;8636;-78
2022/08/17 15:11:41;;;;;;;;;;;;;;;;;;6039795;23;8617;-79
2022/08/17 15:14:07;;;;;;;;;;;;;;;;;;6039979;23;8439;-79
2022/08/17 15:16:34;;;;;;;;;;;;;;;;;;6039346;23;7445;-80
2022/08/17 15:19:01;;;;;;;;;;;;;;;;;;6039477;23;8467;-80
2022/08/17 15:21:27;;;;;;;;;;;;;;;;;;6039540;23;8724;-80
2022/08/17 15:23:53;;;;;;;;;;;;;;;;;;6039281;23;8610;-80
2022/08/17 15:26:18;;;;;;;;;;;;;;;;;;6039635;23;8456;-79
2022/08/17 15:28:43;;;;;;;;;;;;;;;;;;6039709;23;8427;-80
2022/08/17 15:31:09;;;;;;;;;;;;;;;;;;6038860;23;8570;-79
2022/08/17 15:33:34;;;;;;;;;;;;;;;;;;6038734;23;8669;-81
2022/08/17 15:36:02;;;;;;;;;;;;;;;;;;6039973;23;7125;-79
2022/08/17 15:38:29;;;;;;;;;;;;;;;;;;6039230;23;8455;-80
2022/08/17 15:40:56;;;;;;;;;;;;;;;;;;6039245;23;8466;-79
2022/08/17 15:43:23;;;;;;;;;;;;;;;;;;6039268;23;8441;-78
2022/08/17 15:45:57;;;;;;;;;;;;;;;;;;6038362;23;8461;-79
2022/08/17 15:48:22;;;;;;;;;;;;;;;;;;6038812;23;8498;-81
2022/08/17 15:50:48;;;;;;;;;;;;;;;;;;6040583;23;8515;-79
2022/08/17 15:53:13;;;;;;;;;;;;;;;;;;6040068;23;8824;-81
2022/08/17 15:55:39;;;;;;;;;;;;;;;;;;6039915;23;8495;-81
2022/08/17 15:58:05;;;;;;;;;;;;;;;;;;6039557;23;7414;-81
2022/08/17 16:00:30;;;;;;;;;;;;;;;;;;6039052;23;7271;-81
2022/08/17 16:02:58;;;;;;;;;;;;;;;;;;6039331;23;8441;-80
2022/08/17 16:05:26;;;;;;;;;;;;;;;;;;6039246;23;7124;-80
2022/08/17 16:07:52;;;;;;;;;;;;;;;;;;6039525;23;8932;-78
2022/08/17 16:10:19;;;;;;;;;;;;;;;;;;6038947;23;8778;-78
2022/08/17 16:12:47;;;;;;;;;;;;;;;;;;6039173;23;8603;-81
2022/08/17 16:15:13;;;;;;;;;;;;;;;;;;6038760;23;8861;-80
2022/08/17 16:17:40;;;;;;;;;;;;;;;;;;6040017;23;7317;-81
2022/08/17 16:20:06;;;;;;;;;;;;;;;;;;6039111;23;9049;-79
2022/08/17 16:22:35;;;;;;;;;;;;;;;;;;6038612;23;8530;-81
2022/08/17 16:25:03;;;;;;;;;;;;;;;;;;6039420;23;9176;-81
2022/08/17 16:27:29;;;;;;;;;;;;;;;;;;6039744;23;8790;-80
2022/08/17 16:29:54;;;;;;;;;;;;;;;;;;6040293;23;7180;-80
2022/08/17 16:32:22;;;;;;;;;;;;;;;;;;6040003;23;8483;-79
2022/08/17 16:34:47;;;;;;;;;;;;;;;;;;6038849;23;8566;-80
2022/08/17 16:37:13;;;;;;;;;;;;;;;;;;6039346;23;8462;-80
2022/08/17 16:39:38;;;;;;;;;;;;;;;;;;6039306;23;8709;-81
2022/08/17 16:42:07;;;;;;;;;;;;;;;;;;6040303;23;8654;-80
2022/08/17 16:44:33;;;;;;;;;;;;;;;;;;6039653;23;8888;-80
2022/08/17 16:47:00;;;;;;;;;;;;;;;;;;6039819;23;8526;-79
2022/08/17 16:49:25;;;;;;;;;;;;;;;;;;6039979;23;9307;-80
2022/08/17 16:51:51;;;;;;;;;;;;;;;;;;6039086;23;7040;-80
2022/08/17 16:54:16;;;;;;;;;;;;;;;;;;6039189;23;8477;-80
2022/08/17 16:56:42;;;;;;;;;;;;;;;;;;6039397;23;8494;-79
2022/08/17 16:59:10;;;;;;;;;;;;;;;;;;6038672;23;8432;-79
2022/08/17 17:01:41;;;;;;;;;;;;;;;;;;6040524;23;8865;-81
2022/08/17 17:04:10;;;;;;;;;;;;;;;;;;6042003;23;8889;-80
2022/08/17 17:06:42;;;;;;;;;;;;;;;;;;6041409;23;8596;-80
2022/08/17 17:09:16;;;;;;;;;;;;;;;;;;6036955;23;7261;-80
2022/08/17 17:11:52;;;;;;;;;;;;;;;;;;5989781;23;8408;-80
2022/08/17 17:14:31;;;;;;;;;;;;;;;;;;5989604;23;8617;-79
2022/08/17 17:17:03;;;;;;;;;;;;;;;;;;5989911;23;8781;-81
2022/08/17 17:19:56;;;;;;;;;;;;;;;;;;5990108;23;8414;-80
2022/08/17 17:22:22;;;;;;;;;;;;;;;;;;5990029;23;8824;-80
2022/08/17 17:25:01;;;;;;;;;;;;;;;;;;5989355;23;8514;-80
2022/08/17 17:27:42;;;;;;;;;;;;;;;;;;5989700;23;8481;-80
2022/08/17 17:30:19;;;;;;;;;;;;;;;;;;5989324;23;8776;-78
2022/08/17 17:32:50;;;;;;;;;;;;;;;;;;5989532;23;8547;-81
2022/08/17 17:35:24;;;;;;;;;;;;;;;;;;5989758;23;8545;-78
2022/08/17 17:37:52;;;;;;;;;;;;;;;;;;5989120;23;8676;-79
2022/08/17 17:40:21;;;;;;;;;;;;;;;;;;5987384;23;8778;-77
2022/08/17 17:42:52;;;;;;;;;;;;;;;;;;5986517;23;8712;-80
2022/08/17 17:45:20;;;;;;;;;;;;;;;;;;5986643;23;8664;-80
2022/08/17 17:47:46;;;;;;;;;;;;;;;;;;5987168;23;7055;-80
2022/08/17 17:50:14;;;;;;;;;;;;;;;;;;5987043;23;7189;-80
2022/08/17 17:52:46;;;;;;;;;;;;;;;;;;5986701;23;8662;-80
2022/08/17 17:55:37;;;;;;;;;;;;;;;;;;5988507;23;7049;-79